EDDG/FMO METAR and TAF weather

Enter ICAO airport designator
Station Type Date Time Source
EDDG METAR 2021/04/13 22:50 UTC NOAA

EDDG 132250Z VRB02KT CAVOK M00/M00 Q1031 NOSIG


Station Type Date Time Source
EDDG Decoded METAR 2021/04/13 22:50 UTC NOAA

Muenster / Osnabrueck, Germany (EDDG) 52-08N 007-42E 53M
Apr 13, 2021 - 06:50 PM EDT / 2021.04.13 2250 UTC
Wind: Variable at 2 MPH (2 KT):0
Visibility: greater than 7 mile(s):0
Temperature: 32 F (0 C)
Dew Point: 32 F (0 C)
Relative Humidity: 100%
Pressure (altimeter): 30.45 in. Hg (1031 hPa)
ob: EDDG 132250Z VRB02KT CAVOK M00/M00 Q1031 NOSIG
cycle: 23

Station Type Date Time Source
EDDG TAF 2021/04/13 18:27 UTC NOAA

TAF EDDG 131700Z 1318/1418 32008KT 9999 FEW040
BECMG 1318/1321 VRB02KT PROB30
TEMPO 1404/1406 4000 BR
BECMG 1408/1411 33007KT
TEMPO 1411/1416 33014KT SHRAGS BKN030TCU

Example: see airport list